Yeager (CRW)

 

Airport Diagram
Current Weather/Forecast (VFR Conditions)
METAR KCRW 132354Z 22008KT 10SM TS SCT050CB SCT120 28/19 A2999 RMK AO2 LTG DSNT E-SW SLP145 OCNL LTGICCG SW TS SW MOV NE T02780194 10339 20278 53011
TAF KCRW 132320Z 1400/1424 VRB04KT P6SM VCTS SCT090CB FM140800 00000KT 4SM BR SCT001 BKN045 FM141200 00000KT 6SM BR BKN035 FM141400 08004KT P6SM SCT035 FM142100 08004KT P6SM VCTS BKN070CB

Airport Information

All Charts
General
Chart Name View
AIRPORT DIAGRAM
TAKEOFF MINIMUMS
ALTERNATE MINIMUMS

Approaches
Chart Name Download
ILS OR LOC RWY 05
ILS OR LOC RWY 23
RNAV (RNP) Z RWY 05
RNAV (RNP) Z RWY 23
RNAV (GPS) Y RWY 05
RNAV (GPS) Y RWY 23
VOR-A


Airport Statistics
Departures Arrivals Local
All Collected Stats since June 2016: 336 266 17
2020 Stats: 95 88 0
August Stats: 3 4 0

Inbound Traffic (Arrivals) - 0

No inbound traffic.


Outbound Traffic (Departures) - 0

No outbound traffic.


Local Traffic (Pattern) - 0

No local traffic.